Sign in

Goboko Update

Goboko is set to continue

The Goboko booking system is to continue under a new operator, a member of one of our longest-subscribed flying clubs

The new and previous operators of the site are working to ensure there will be no interruption to your booking service as the transition takes place. Of course, aircraft booking will continue to be free

Thank you for your continued commitment to Goboko

Info

Aviation weather

METAR KDAB 230853Z VRB04KT 9SM FEW024 SCT038 OVC250 22/21 A3002 RMK AO2 SLP163 T02170211 55006 $

TAF KDAB 230526Z 2306/2406 13006KT P6SM VCSH SCT015 BKN050 FM231400 17010KT P6SM VCSH SCT025 BKN060 FM231900 17012KT P6SM VCTS SCT030CB BKN060 TEMPO 2319/2323 2SM TSRA BKN025CB FM240000 18006KT P6SM VCSH SCT025 BKN035 OVC060

Aviation weather from ADDS. Re-check weather before flight.

-